sensor_id;sensor_type;location;lat;lon;timestamp;P1;durP1;ratioP1;P2;durP2;ratioP2
39524;SDS011;25203;50.754;6.978;2022-08-19T00:01:15;11.45;;;8.98;;
39524;SDS011;25203;50.754;6.978;2022-08-19T00:03:16;10.05;;;9.10;;
39524;SDS011;25203;50.754;6.978;2022-08-19T00:05:17;11.05;;;9.70;;
39524;SDS011;25203;50.754;6.978;2022-08-19T00:07:19;11.73;;;10.55;;
39524;SDS011;25203;50.754;6.978;2022-08-19T00:09:20;11.27;;;10.13;;
39524;SDS011;25203;50.754;6.978;2022-08-19T00:11:22;11.25;;;9.30;;
39524;SDS011;25203;50.754;6.978;2022-08-19T00:13:23;13.63;;;11.50;;
39524;SDS011;25203;50.754;6.978;2022-08-19T00:15:24;12.60;;;11.30;;
39524;SDS011;25203;50.754;6.978;2022-08-19T00:17:25;13.65;;;11.65;;
39524;SDS011;25203;50.754;6.978;2022-08-19T00:19:25;15.18;;;11.40;;
39524;SDS011;25203;50.754;6.978;2022-08-19T00:21:26;14.55;;;12.98;;
39524;SDS011;25203;50.754;6.978;2022-08-19T00:23:27;13.95;;;11.60;;
39524;SDS011;25203;50.754;6.978;2022-08-19T00:25:28;15.90;;;13.10;;
39524;SDS011;25203;50.754;6.978;2022-08-19T00:27:28;14.35;;;12.95;;
39524;SDS011;25203;50.754;6.978;2022-08-19T00:29:29;16.05;;;13.50;;
39524;SDS011;25203;50.754;6.978;2022-08-19T00:31:30;17.08;;;13.38;;
39524;SDS011;25203;50.754;6.978;2022-08-19T00:33:31;14.18;;;12.77;;
39524;SDS011;25203;50.754;6.978;2022-08-19T00:35:32;15.48;;;12.48;;
39524;SDS011;25203;50.754;6.978;2022-08-19T00:37:33;14.02;;;12.63;;
39524;SDS011;25203;50.754;6.978;2022-08-19T00:39:35;15.18;;;13.68;;
39524;SDS011;25203;50.754;6.978;2022-08-19T00:41:36;15.40;;;12.93;;
39524;SDS011;25203;50.754;6.978;2022-08-19T00:43:37;17.70;;;14.40;;
39524;SDS011;25203;50.754;6.978;2022-08-19T00:45:38;14.00;;;11.88;;
39524;SDS011;25203;50.754;6.978;2022-08-19T00:47:42;17.10;;;13.60;;
39524;SDS011;25203;50.754;6.978;2022-08-19T00:49:44;15.02;;;13.52;;
39524;SDS011;25203;50.754;6.978;2022-08-19T00:51:51;15.75;;;14.07;;
39524;SDS011;25203;50.754;6.978;2022-08-19T00:53:55;15.02;;;13.43;;
39524;SDS011;25203;50.754;6.978;2022-08-19T00:55:58;17.90;;;13.20;;
39524;SDS011;25203;50.754;6.978;2022-08-19T00:58:07;19.27;;;15.43;;
39524;SDS011;25203;50.754;6.978;2022-08-19T01:00:14;16.42;;;14.70;;
39524;SDS011;25203;50.754;6.978;2022-08-19T01:02:17;14.73;;;13.30;;
39524;SDS011;25203;50.754;6.978;2022-08-19T01:04:18;15.70;;;14.10;;
39524;SDS011;25203;50.754;6.978;2022-08-19T01:06:18;19.00;;;14.88;;
39524;SDS011;25203;50.754;6.978;2022-08-19T01:08:19;14.40;;;12.73;;
39524;SDS011;25203;50.754;6.978;2022-08-19T01:10:21;14.10;;;12.80;;
39524;SDS011;25203;50.754;6.978;2022-08-19T01:12:25;15.50;;;14.00;;
39524;SDS011;25203;50.754;6.978;2022-08-19T01:14:26;21.00;;;13.75;;
39524;SDS011;25203;50.754;6.978;2022-08-19T01:16:27;14.20;;;12.80;;
39524;SDS011;25203;50.754;6.978;2022-08-19T01:18:30;12.32;;;11.07;;
39524;SDS011;25203;50.754;6.978;2022-08-19T01:20:32;14.75;;;13.25;;
39524;SDS011;25203;50.754;6.978;2022-08-19T01:22:34;14.10;;;11.77;;
39524;SDS011;25203;50.754;6.978;2022-08-19T01:24:42;12.85;;;11.63;;
39524;SDS011;25203;50.754;6.978;2022-08-19T01:26:43;13.27;;;12.07;;
39524;SDS011;25203;50.754;6.978;2022-08-19T01:28:45;15.20;;;13.60;;
39524;SDS011;25203;50.754;6.978;2022-08-19T01:30:47;15.77;;;14.27;;
39524;SDS011;25203;50.754;6.978;2022-08-19T01:32:49;14.50;;;13.00;;
39524;SDS011;25203;50.754;6.978;2022-08-19T01:34:50;14.93;;;13.48;;
39524;SDS011;25203;50.754;6.978;2022-08-19T01:36:51;16.83;;;15.05;;
39524;SDS011;25203;50.754;6.978;2022-08-19T01:38:52;17.27;;;15.27;;
39524;SDS011;25203;50.754;6.978;2022-08-19T01:40:53;17.45;;;14.75;;
39524;SDS011;25203;50.754;6.978;2022-08-19T01:42:54;15.65;;;14.05;;
39524;SDS011;25203;50.754;6.978;2022-08-19T01:44:54;16.63;;;15.02;;
39524;SDS011;25203;50.754;6.978;2022-08-19T01:46:56;16.60;;;14.60;;
39524;SDS011;25203;50.754;6.978;2022-08-19T01:48:57;15.70;;;14.10;;
39524;SDS011;25203;50.754;6.978;2022-08-19T01:50:58;16.08;;;14.48;;
39524;SDS011;25203;50.754;6.978;2022-08-19T01:52:59;17.60;;;15.70;;
39524;SDS011;25203;50.754;6.978;2022-08-19T01:55:00;14.88;;;13.32;;
39524;SDS011;25203;50.754;6.978;2022-08-19T01:57:03;15.10;;;13.60;;
39524;SDS011;25203;50.754;6.978;2022-08-19T01:59:10;19.17;;;16.80;;
39524;SDS011;25203;50.754;6.978;2022-08-19T02:01:13;20.23;;;16.75;;
39524;SDS011;25203;50.754;6.978;2022-08-19T02:03:14;19.55;;;17.38;;
39524;SDS011;25203;50.754;6.978;2022-08-19T02:05:16;19.38;;;17.38;;
39524;SDS011;25203;50.754;6.978;2022-08-19T02:07:19;19.50;;;17.50;;
39524;SDS011;25203;50.754;6.978;2022-08-19T02:09:21;18.77;;;16.65;;
39524;SDS011;25203;50.754;6.978;2022-08-19T02:11:23;18.38;;;16.60;;
39524;SDS011;25203;50.754;6.978;2022-08-19T02:13:31;18.00;;;16.10;;
39524;SDS011;25203;50.754;6.978;2022-08-19T02:15:32;17.02;;;15.35;;
39524;SDS011;25203;50.754;6.978;2022-08-19T02:17:33;18.33;;;16.60;;
39524;SDS011;25203;50.754;6.978;2022-08-19T02:19:34;20.27;;;17.40;;
39524;SDS011;25203;50.754;6.978;2022-08-19T02:21:34;20.15;;;17.48;;
39524;SDS011;25203;50.754;6.978;2022-08-19T02:23:35;16.83;;;15.23;;
39524;SDS011;25203;50.754;6.978;2022-08-19T02:25:36;14.32;;;13.00;;
39524;SDS011;25203;50.754;6.978;2022-08-19T02:27:37;16.08;;;14.30;;
39524;SDS011;25203;50.754;6.978;2022-08-19T02:29:38;17.85;;;16.08;;
39524;SDS011;25203;50.754;6.978;2022-08-19T02:31:39;19.92;;;17.70;;
39524;SDS011;25203;50.754;6.978;2022-08-19T02:33:40;20.30;;;17.15;;
39524;SDS011;25203;50.754;6.978;2022-08-19T02:35:42;19.85;;;16.88;;
39524;SDS011;25203;50.754;6.978;2022-08-19T02:37:44;19.25;;;17.25;;
39524;SDS011;25203;50.754;6.978;2022-08-19T02:40:06;17.83;;;16.08;;
39524;SDS011;25203;50.754;6.978;2022-08-19T02:42:17;21.90;;;17.60;;
39524;SDS011;25203;50.754;6.978;2022-08-19T02:44:18;19.42;;;17.48;;
39524;SDS011;25203;50.754;6.978;2022-08-19T02:46:20;20.40;;;18.05;;
39524;SDS011;25203;50.754;6.978;2022-08-19T02:48:24;19.02;;;17.02;;
39524;SDS011;25203;50.754;6.978;2022-08-19T02:50:25;18.15;;;16.30;;
39524;SDS011;25203;50.754;6.978;2022-08-19T02:52:26;18.55;;;15.82;;
39524;SDS011;25203;50.754;6.978;2022-08-19T02:54:28;19.85;;;15.85;;
39524;SDS011;25203;50.754;6.978;2022-08-19T02:56:28;18.48;;;16.65;;
39524;SDS011;25203;50.754;6.978;2022-08-19T02:58:30;18.65;;;16.70;;
39524;SDS011;25203;50.754;6.978;2022-08-19T03:00:31;17.60;;;15.85;;
39524;SDS011;25203;50.754;6.978;2022-08-19T03:02:32;23.42;;;20.48;;
39524;SDS011;25203;50.754;6.978;2022-08-19T03:04:32;20.85;;;18.77;;
39524;SDS011;25203;50.754;6.978;2022-08-19T03:06:35;23.15;;;20.85;;
39524;SDS011;25203;50.754;6.978;2022-08-19T03:08:42;21.40;;;19.00;;
39524;SDS011;25203;50.754;6.978;2022-08-19T03:10:46;23.60;;;21.10;;
39524;SDS011;25203;50.754;6.978;2022-08-19T03:12:47;23.63;;;21.13;;
39524;SDS011;25203;50.754;6.978;2022-08-19T03:14:48;26.15;;;22.50;;
39524;SDS011;25203;50.754;6.978;2022-08-19T03:16:49;25.58;;;22.83;;
39524;SDS011;25203;50.754;6.978;2022-08-19T03:18:51;22.92;;;20.23;;
39524;SDS011;25203;50.754;6.978;2022-08-19T03:20:53;22.20;;;19.88;;
39524;SDS011;25203;50.754;6.978;2022-08-19T03:22:54;26.23;;;22.27;;
39524;SDS011;25203;50.754;6.978;2022-08-19T03:24:55;21.42;;;18.08;;
39524;SDS011;25203;50.754;6.978;2022-08-19T03:26:56;17.92;;;16.02;;
39524;SDS011;25203;50.754;6.978;2022-08-19T03:29:00;19.90;;;17.77;;
39524;SDS011;25203;50.754;6.978;2022-08-19T03:31:04;17.80;;;16.00;;
39524;SDS011;25203;50.754;6.978;2022-08-19T03:33:08;20.30;;;17.00;;
39524;SDS011;25203;50.754;6.978;2022-08-19T03:35:10;19.58;;;17.50;;
39524;SDS011;25203;50.754;6.978;2022-08-19T03:37:11;23.92;;;19.73;;
39524;SDS011;25203;50.754;6.978;2022-08-19T03:39:12;20.27;;;18.17;;
39524;SDS011;25203;50.754;6.978;2022-08-19T03:41:23;21.42;;;19.23;;
39524;SDS011;25203;50.754;6.978;2022-08-19T03:43:26;19.92;;;17.83;;
39524;SDS011;25203;50.754;6.978;2022-08-19T03:45:26;20.85;;;18.70;;
39524;SDS011;25203;50.754;6.978;2022-08-19T03:47:27;21.02;;;17.67;;
39524;SDS011;25203;50.754;6.978;2022-08-19T03:49:29;18.85;;;17.05;;
39524;SDS011;25203;50.754;6.978;2022-08-19T03:51:36;18.35;;;16.45;;
39524;SDS011;25203;50.754;6.978;2022-08-19T03:53:38;21.35;;;19.20;;
39524;SDS011;25203;50.754;6.978;2022-08-19T03:55:40;21.75;;;19.52;;
39524;SDS011;25203;50.754;6.978;2022-08-19T03:57:41;25.05;;;22.38;;
39524;SDS011;25203;50.754;6.978;2022-08-19T03:59:41;22.20;;;20.00;;
39524;SDS011;25203;50.754;6.978;2022-08-19T04:01:42;22.88;;;18.63;;
39524;SDS011;25203;50.754;6.978;2022-08-19T04:03:43;25.58;;;22.88;;
39524;SDS011;25203;50.754;6.978;2022-08-19T04:05:46;27.65;;;24.80;;
39524;SDS011;25203;50.754;6.978;2022-08-19T04:07:46;26.45;;;21.17;;
39524;SDS011;25203;50.754;6.978;2022-08-19T04:09:48;24.75;;;22.30;;
39524;SDS011;25203;50.754;6.978;2022-08-19T04:11:50;21.25;;;18.98;;
39524;SDS011;25203;50.754;6.978;2022-08-19T04:13:55;22.27;;;19.80;;
39524;SDS011;25203;50.754;6.978;2022-08-19T04:15:56;28.55;;;25.55;;
39524;SDS011;25203;50.754;6.978;2022-08-19T04:17:57;26.30;;;22.42;;
39524;SDS011;25203;50.754;6.978;2022-08-19T04:19:58;25.77;;;23.08;;
39524;SDS011;25203;50.754;6.978;2022-08-19T04:21:59;25.50;;;22.20;;
39524;SDS011;25203;50.754;6.978;2022-08-19T04:24:00;29.92;;;26.63;;
39524;SDS011;25203;50.754;6.978;2022-08-19T04:26:02;29.42;;;26.27;;
39524;SDS011;25203;50.754;6.978;2022-08-19T04:28:03;35.35;;;27.73;;
39524;SDS011;25203;50.754;6.978;2022-08-19T04:30:03;82.03;;;62.92;;
39524;SDS011;25203;50.754;6.978;2022-08-19T04:32:07;30.77;;;25.15;;
39524;SDS011;25203;50.754;6.978;2022-08-19T04:34:09;30.10;;;26.88;;
39524;SDS011;25203;50.754;6.978;2022-08-19T04:36:19;34.08;;;28.67;;
39524;SDS011;25203;50.754;6.978;2022-08-19T04:38:22;31.63;;;28.25;;
39524;SDS011;25203;50.754;6.978;2022-08-19T04:40:22;30.60;;;27.35;;
39524;SDS011;25203;50.754;6.978;2022-08-19T04:42:41;36.70;;;30.02;;
39524;SDS011;25203;50.754;6.978;2022-08-19T04:44:42;33.17;;;29.50;;
39524;SDS011;25203;50.754;6.978;2022-08-19T04:46:46;35.60;;;28.83;;
39524;SDS011;25203;50.754;6.978;2022-08-19T04:48:51;32.10;;;28.30;;
39524;SDS011;25203;50.754;6.978;2022-08-19T04:50:54;34.53;;;27.85;;
39524;SDS011;25203;50.754;6.978;2022-08-19T04:52:59;32.78;;;27.92;;
39524;SDS011;25203;50.754;6.978;2022-08-19T04:54:59;34.60;;;30.02;;
39524;SDS011;25203;50.754;6.978;2022-08-19T04:57:00;31.05;;;27.77;;
39524;SDS011;25203;50.754;6.978;2022-08-19T04:59:01;25.77;;;23.00;;
39524;SDS011;25203;50.754;6.978;2022-08-19T05:01:04;24.10;;;21.60;;
39524;SDS011;25203;50.754;6.978;2022-08-19T05:03:05;26.20;;;22.55;;
39524;SDS011;25203;50.754;6.978;2022-08-19T05:05:06;33.75;;;27.33;;
39524;SDS011;25203;50.754;6.978;2022-08-19T05:07:07;29.23;;;26.05;;
39524;SDS011;25203;50.754;6.978;2022-08-19T05:09:09;35.30;;;31.00;;
39524;SDS011;25203;50.754;6.978;2022-08-19T05:11:13;32.75;;;27.48;;
39524;SDS011;25203;50.754;6.978;2022-08-19T05:13:16;24.73;;;22.13;;
39524;SDS011;25203;50.754;6.978;2022-08-19T05:15:18;24.95;;;22.42;;
39524;SDS011;25203;50.754;6.978;2022-08-19T05:17:19;27.20;;;22.48;;
39524;SDS011;25203;50.754;6.978;2022-08-19T05:19:20;23.60;;;21.17;;
39524;SDS011;25203;50.754;6.978;2022-08-19T05:21:39;29.35;;;26.17;;
39524;SDS011;25203;50.754;6.978;2022-08-19T05:24:00;34.95;;;29.48;;
39524;SDS011;25203;50.754;6.978;2022-08-19T05:26:02;38.70;;;31.42;;
39524;SDS011;25203;50.754;6.978;2022-08-19T05:28:02;38.42;;;33.67;;
39524;SDS011;25203;50.754;6.978;2022-08-19T05:30:03;38.70;;;32.17;;
39524;SDS011;25203;50.754;6.978;2022-08-19T05:32:05;38.70;;;33.05;;
39524;SDS011;25203;50.754;6.978;2022-08-19T05:34:10;33.30;;;29.67;;
39524;SDS011;25203;50.754;6.978;2022-08-19T05:36:11;31.83;;;28.30;;
39524;SDS011;25203;50.754;6.978;2022-08-19T05:38:12;34.80;;;29.05;;
39524;SDS011;25203;50.754;6.978;2022-08-19T05:40:13;30.98;;;26.23;;
39524;SDS011;25203;50.754;6.978;2022-08-19T05:42:13;29.83;;;26.63;;
39524;SDS011;25203;50.754;6.978;2022-08-19T05:44:14;32.40;;;29.10;;
39524;SDS011;25203;50.754;6.978;2022-08-19T05:46:17;44.15;;;35.78;;
39524;SDS011;25203;50.754;6.978;2022-08-19T05:48:19;40.42;;;35.90;;
39524;SDS011;25203;50.754;6.978;2022-08-19T05:50:20;45.92;;;37.65;;
39524;SDS011;25203;50.754;6.978;2022-08-19T05:52:21;41.85;;;37.22;;
39524;SDS011;25203;50.754;6.978;2022-08-19T05:54:22;44.30;;;36.97;;
39524;SDS011;25203;50.754;6.978;2022-08-19T05:56:24;41.13;;;36.63;;
39524;SDS011;25203;50.754;6.978;2022-08-19T05:58:24;44.63;;;38.13;;
39524;SDS011;25203;50.754;6.978;2022-08-19T06:00:26;45.72;;;38.90;;
39524;SDS011;25203;50.754;6.978;2022-08-19T06:02:26;40.40;;;36.00;;
39524;SDS011;25203;50.754;6.978;2022-08-19T06:04:28;40.65;;;35.63;;
39524;SDS011;25203;50.754;6.978;2022-08-19T06:06:29;44.05;;;37.30;;
39524;SDS011;25203;50.754;6.978;2022-08-19T06:08:29;46.30;;;38.10;;
39524;SDS011;25203;50.754;6.978;2022-08-19T06:10:30;44.63;;;37.80;;
39524;SDS011;25203;50.754;6.978;2022-08-19T06:12:32;43.25;;;36.65;;
39524;SDS011;25203;50.754;6.978;2022-08-19T06:14:35;44.33;;;38.78;;
39524;SDS011;25203;50.754;6.978;2022-08-19T06:16:37;45.45;;;38.60;;
39524;SDS011;25203;50.754;6.978;2022-08-19T06:18:39;40.65;;;34.75;;
39524;SDS011;25203;50.754;6.978;2022-08-19T06:20:39;44.95;;;37.88;;
39524;SDS011;25203;50.754;6.978;2022-08-19T06:22:43;41.75;;;35.15;;
39524;SDS011;25203;50.754;6.978;2022-08-19T06:24:45;40.20;;;33.92;;
39524;SDS011;25203;50.754;6.978;2022-08-19T06:26:46;41.72;;;36.88;;
39524;SDS011;25203;50.754;6.978;2022-08-19T06:28:48;49.80;;;37.80;;
39524;SDS011;25203;50.754;6.978;2022-08-19T06:30:49;39.20;;;33.75;;
39524;SDS011;25203;50.754;6.978;2022-08-19T06:32:51;47.78;;;38.40;;
39524;SDS011;25203;50.754;6.978;2022-08-19T06:34:51;47.45;;;37.75;;
39524;SDS011;25203;50.754;6.978;2022-08-19T06:36:52;53.30;;;38.80;;
39524;SDS011;25203;50.754;6.978;2022-08-19T06:38:53;49.22;;;36.85;;
39524;SDS011;25203;50.754;6.978;2022-08-19T06:41:03;51.05;;;40.58;;
39524;SDS011;25203;50.754;6.978;2022-08-19T06:43:04;45.35;;;38.20;;
39524;SDS011;25203;50.754;6.978;2022-08-19T06:45:05;36.65;;;32.67;;
39524;SDS011;25203;50.754;6.978;2022-08-19T06:47:08;44.58;;;37.75;;
39524;SDS011;25203;50.754;6.978;2022-08-19T06:49:12;46.50;;;34.65;;
39524;SDS011;25203;50.754;6.978;2022-08-19T06:51:14;42.47;;;35.58;;
39524;SDS011;25203;50.754;6.978;2022-08-19T06:53:18;44.30;;;36.85;;
39524;SDS011;25203;50.754;6.978;2022-08-19T06:55:19;43.00;;;34.22;;
39524;SDS011;25203;50.754;6.978;2022-08-19T06:57:19;40.38;;;32.55;;
39524;SDS011;25203;50.754;6.978;2022-08-19T06:59:21;44.10;;;35.20;;
39524;SDS011;25203;50.754;6.978;2022-08-19T07:01:27;46.05;;;35.88;;
39524;SDS011;25203;50.754;6.978;2022-08-19T07:03:32;46.28;;;35.03;;
39524;SDS011;25203;50.754;6.978;2022-08-19T07:05:38;43.65;;;34.65;;
39524;SDS011;25203;50.754;6.978;2022-08-19T07:07:42;40.25;;;33.20;;
39524;SDS011;25203;50.754;6.978;2022-08-19T07:09:43;39.88;;;32.95;;
39524;SDS011;25203;50.754;6.978;2022-08-19T07:11:45;44.70;;;34.95;;
39524;SDS011;25203;50.754;6.978;2022-08-19T07:13:50;43.85;;;34.42;;
39524;SDS011;25203;50.754;6.978;2022-08-19T07:15:51;47.75;;;35.55;;
39524;SDS011;25203;50.754;6.978;2022-08-19T07:17:52;47.33;;;35.22;;
39524;SDS011;25203;50.754;6.978;2022-08-19T07:19:52;42.92;;;33.03;;
39524;SDS011;25203;50.754;6.978;2022-08-19T07:21:53;40.15;;;32.90;;
39524;SDS011;25203;50.754;6.978;2022-08-19T07:23:55;41.38;;;32.88;;
39524;SDS011;25203;50.754;6.978;2022-08-19T07:25:58;40.33;;;30.67;;
39524;SDS011;25203;50.754;6.978;2022-08-19T07:28:19;40.92;;;30.25;;
39524;SDS011;25203;50.754;6.978;2022-08-19T07:30:20;39.38;;;28.40;;
39524;SDS011;25203;50.754;6.978;2022-08-19T07:32:22;32.35;;;26.08;;
39524;SDS011;25203;50.754;6.978;2022-08-19T07:34:23;34.60;;;26.40;;
39524;SDS011;25203;50.754;6.978;2022-08-19T07:36:26;30.33;;;26.05;;
39524;SDS011;25203;50.754;6.978;2022-08-19T07:38:32;35.25;;;25.88;;
39524;SDS011;25203;50.754;6.978;2022-08-19T07:40:34;25.13;;;20.60;;
39524;SDS011;25203;50.754;6.978;2022-08-19T07:42:34;31.55;;;24.17;;
39524;SDS011;25203;50.754;6.978;2022-08-19T07:44:35;24.00;;;20.55;;
39524;SDS011;25203;50.754;6.978;2022-08-19T07:46:37;23.23;;;19.33;;
39524;SDS011;25203;50.754;6.978;2022-08-19T07:48:41;23.58;;;19.30;;
39524;SDS011;25203;50.754;6.978;2022-08-19T07:50:46;28.98;;;22.40;;
39524;SDS011;25203;50.754;6.978;2022-08-19T07:52:48;26.67;;;21.85;;
39524;SDS011;25203;50.754;6.978;2022-08-19T07:54:49;28.08;;;19.27;;
39524;SDS011;25203;50.754;6.978;2022-08-19T07:56:50;23.17;;;18.30;;
39524;SDS011;25203;50.754;6.978;2022-08-19T07:58:51;19.17;;;16.65;;
39524;SDS011;25203;50.754;6.978;2022-08-19T08:00:53;17.10;;;14.68;;
39524;SDS011;25203;50.754;6.978;2022-08-19T08:02:53;16.98;;;14.80;;
39524;SDS011;25203;50.754;6.978;2022-08-19T08:04:54;15.23;;;12.57;;
39524;SDS011;25203;50.754;6.978;2022-08-19T08:07:13;18.40;;;14.40;;
39524;SDS011;25203;50.754;6.978;2022-08-19T08:09:35;18.63;;;13.98;;
39524;SDS011;25203;50.754;6.978;2022-08-19T08:11:38;13.43;;;12.00;;
39524;SDS011;25203;50.754;6.978;2022-08-19T08:13:41;19.15;;;15.98;;
39524;SDS011;25203;50.754;6.978;2022-08-19T08:15:41;15.57;;;13.98;;
39524;SDS011;25203;50.754;6.978;2022-08-19T08:17:44;19.88;;;17.73;;
39524;SDS011;25203;50.754;6.978;2022-08-19T08:19:45;21.75;;;18.73;;
39524;SDS011;25203;50.754;6.978;2022-08-19T08:21:49;22.40;;;20.08;;
39524;SDS011;25203;50.754;6.978;2022-08-19T08:23:50;19.58;;;17.48;;
39524;SDS011;25203;50.754;6.978;2022-08-19T08:25:52;19.42;;;17.42;;
39524;SDS011;25203;50.754;6.978;2022-08-19T08:27:54;27.60;;;22.25;;
39524;SDS011;25203;50.754;6.978;2022-08-19T08:29:56;20.50;;;17.98;;
39524;SDS011;25203;50.754;6.978;2022-08-19T08:31:58;17.85;;;16.02;;
39524;SDS011;25203;50.754;6.978;2022-08-19T08:33:58;23.13;;;20.17;;
39524;SDS011;25203;50.754;6.978;2022-08-19T08:35:59;23.75;;;20.27;;
39524;SDS011;25203;50.754;6.978;2022-08-19T08:38:00;20.38;;;17.98;;
39524;SDS011;25203;50.754;6.978;2022-08-19T08:40:08;22.52;;;19.42;;
39524;SDS011;25203;50.754;6.978;2022-08-19T08:42:34;23.10;;;20.00;;
39524;SDS011;25203;50.754;6.978;2022-08-19T08:44:43;33.97;;;26.15;;
39524;SDS011;25203;50.754;6.978;2022-08-19T08:47:02;25.48;;;19.20;;
39524;SDS011;25203;50.754;6.978;2022-08-19T08:49:24;30.70;;;23.10;;
39524;SDS011;25203;50.754;6.978;2022-08-19T08:51:34;25.58;;;22.90;;
39524;SDS011;25203;50.754;6.978;2022-08-19T08:53:38;26.38;;;22.55;;
39524;SDS011;25203;50.754;6.978;2022-08-19T08:55:42;20.27;;;18.20;;
39524;SDS011;25203;50.754;6.978;2022-08-19T08:57:49;31.80;;;26.40;;
39524;SDS011;25203;50.754;6.978;2022-08-19T08:59:54;26.27;;;23.58;;
39524;SDS011;25203;50.754;6.978;2022-08-19T09:02:00;26.58;;;23.65;;
39524;SDS011;25203;50.754;6.978;2022-08-19T09:04:02;28.98;;;25.90;;
39524;SDS011;25203;50.754;6.978;2022-08-19T09:10:46;25.40;;;22.75;;
39524;SDS011;25203;50.754;6.978;2022-08-19T09:15:07;25.40;;;22.95;;
39524;SDS011;25203;50.754;6.978;2022-08-19T09:17:10;20.98;;;18.65;;
39524;SDS011;25203;50.754;6.978;2022-08-19T09:19:12;27.40;;;24.60;;
39524;SDS011;25203;50.754;6.978;2022-08-19T09:21:13;20.67;;;18.52;;
39524;SDS011;25203;50.754;6.978;2022-08-19T09:23:15;25.63;;;22.92;;
39524;SDS011;25203;50.754;6.978;2022-08-19T09:25:17;21.23;;;19.13;;
39524;SDS011;25203;50.754;6.978;2022-08-19T09:27:21;19.40;;;16.90;;
39524;SDS011;25203;50.754;6.978;2022-08-19T09:29:24;15.93;;;14.25;;
39524;SDS011;25203;50.754;6.978;2022-08-19T09:31:28;21.20;;;17.25;;
39524;SDS011;25203;50.754;6.978;2022-08-19T09:33:29;17.75;;;16.00;;
39524;SDS011;25203;50.754;6.978;2022-08-19T09:35:31;16.75;;;15.07;;
39524;SDS011;25203;50.754;6.978;2022-08-19T09:37:32;13.55;;;12.15;;
39524;SDS011;25203;50.754;6.978;2022-08-19T09:39:33;12.90;;;11.50;;
39524;SDS011;25203;50.754;6.978;2022-08-19T09:41:33;14.05;;;11.48;;
39524;SDS011;25203;50.754;6.978;2022-08-19T09:43:34;13.25;;;10.50;;
39524;SDS011;25203;50.754;6.978;2022-08-19T09:45:36;19.02;;;13.95;;
39524;SDS011;25203;50.754;6.978;2022-08-19T09:47:37;12.55;;;11.02;;
39524;SDS011;25203;50.754;6.978;2022-08-19T09:49:38;11.48;;;10.40;;
39524;SDS011;25203;50.754;6.978;2022-08-19T09:51:39;11.02;;;10.02;;
39524;SDS011;25203;50.754;6.978;2022-08-19T09:53:39;9.88;;;8.90;;
39524;SDS011;25203;50.754;6.978;2022-08-19T09:55:42;8.10;;;7.30;;
39524;SDS011;25203;50.754;6.978;2022-08-19T09:57:43;10.82;;;9.82;;
39524;SDS011;25203;50.754;6.978;2022-08-19T09:59:43;10.35;;;7.97;;
39524;SDS011;25203;50.754;6.978;2022-08-19T10:01:44;8.82;;;7.93;;
39524;SDS011;25203;50.754;6.978;2022-08-19T10:03:47;9.15;;;7.38;;
39524;SDS011;25203;50.754;6.978;2022-08-19T10:05:53;9.20;;;8.20;;
39524;SDS011;25203;50.754;6.978;2022-08-19T10:07:54;8.98;;;8.20;;
39524;SDS011;25203;50.754;6.978;2022-08-19T10:09:55;8.63;;;7.75;;
39524;SDS011;25203;50.754;6.978;2022-08-19T10:11:56;9.52;;;7.93;;
39524;SDS011;25203;50.754;6.978;2022-08-19T10:13:57;9.77;;;8.52;;
39524;SDS011;25203;50.754;6.978;2022-08-19T10:16:03;8.05;;;7.20;;
39524;SDS011;25203;50.754;6.978;2022-08-19T10:18:10;7.20;;;6.45;;
39524;SDS011;25203;50.754;6.978;2022-08-19T10:20:11;9.88;;;7.50;;
39524;SDS011;25203;50.754;6.978;2022-08-19T10:22:11;10.30;;;9.15;;
39524;SDS011;25203;50.754;6.978;2022-08-19T10:24:13;10.00;;;8.05;;
39524;SDS011;25203;50.754;6.978;2022-08-19T10:26:16;10.45;;;8.85;;
39524;SDS011;25203;50.754;6.978;2022-08-19T10:28:18;10.25;;;9.27;;
39524;SDS011;25203;50.754;6.978;2022-08-19T10:30:19;8.18;;;7.40;;
39524;SDS011;25203;50.754;6.978;2022-08-19T10:32:20;9.93;;;8.93;;
39524;SDS011;25203;50.754;6.978;2022-08-19T10:34:21;10.55;;;9.55;;
39524;SDS011;25203;50.754;6.978;2022-08-19T10:36:23;11.95;;;8.95;;
39524;SDS011;25203;50.754;6.978;2022-08-19T10:38:28;13.50;;;9.30;;
39524;SDS011;25203;50.754;6.978;2022-08-19T10:40:29;9.68;;;7.20;;
39524;SDS011;25203;50.754;6.978;2022-08-19T10:42:29;8.65;;;7.82;;
39524;SDS011;25203;50.754;6.978;2022-08-19T10:44:31;8.68;;;7.80;;
39524;SDS011;25203;50.754;6.978;2022-08-19T10:46:36;8.68;;;6.40;;
39524;SDS011;25203;50.754;6.978;2022-08-19T10:48:41;7.17;;;6.47;;
39524;SDS011;25203;50.754;6.978;2022-08-19T10:50:43;8.15;;;6.55;;
39524;SDS011;25203;50.754;6.978;2022-08-19T10:53:05;8.60;;;5.88;;
39524;SDS011;25203;50.754;6.978;2022-08-19T10:55:10;9.85;;;7.75;;
39524;SDS011;25203;50.754;6.978;2022-08-19T10:57:30;9.60;;;7.65;;
39524;SDS011;25203;50.754;6.978;2022-08-19T10:59:31;16.42;;;8.68;;
39524;SDS011;25203;50.754;6.978;2022-08-19T11:01:33;11.40;;;6.88;;
39524;SDS011;25203;50.754;6.978;2022-08-19T11:03:34;8.70;;;7.85;;
39524;SDS011;25203;50.754;6.978;2022-08-19T11:05:35;8.95;;;7.47;;
39524;SDS011;25203;50.754;6.978;2022-08-19T11:07:38;14.27;;;9.38;;
39524;SDS011;25203;50.754;6.978;2022-08-19T11:09:40;15.85;;;10.75;;
39524;SDS011;25203;50.754;6.978;2022-08-19T11:11:42;11.15;;;10.15;;
39524;SDS011;25203;50.754;6.978;2022-08-19T11:13:43;7.68;;;6.97;;
39524;SDS011;25203;50.754;6.978;2022-08-19T11:15:45;10.43;;;8.80;;
39524;SDS011;25203;50.754;6.978;2022-08-19T11:17:47;10.52;;;9.43;;
39524;SDS011;25203;50.754;6.978;2022-08-19T11:19:47;9.00;;;7.57;;
39524;SDS011;25203;50.754;6.978;2022-08-19T11:21:49;8.77;;;7.75;;
39524;SDS011;25203;50.754;6.978;2022-08-19T11:23:53;9.25;;;7.03;;
39524;SDS011;25203;50.754;6.978;2022-08-19T11:25:55;8.48;;;6.25;;
39524;SDS011;25203;50.754;6.978;2022-08-19T11:27:56;9.20;;;8.30;;
39524;SDS011;25203;50.754;6.978;2022-08-19T11:29:57;11.82;;;8.50;;
39524;SDS011;25203;50.754;6.978;2022-08-19T11:31:58;10.27;;;9.20;;
39524;SDS011;25203;50.754;6.978;2022-08-19T11:34:00;12.32;;;9.68;;
39524;SDS011;25203;50.754;6.978;2022-08-19T11:36:03;12.15;;;10.57;;
39524;SDS011;25203;50.754;6.978;2022-08-19T11:38:03;11.20;;;10.05;;
39524;SDS011;25203;50.754;6.978;2022-08-19T11:40:05;15.00;;;11.10;;
39524;SDS011;25203;50.754;6.978;2022-08-19T11:42:06;12.88;;;10.23;;
39524;SDS011;25203;50.754;6.978;2022-08-19T11:44:27;13.63;;;11.10;;
39524;SDS011;25203;50.754;6.978;2022-08-19T11:46:30;11.70;;;10.60;;
39524;SDS011;25203;50.754;6.978;2022-08-19T11:48:31;12.68;;;10.43;;
39524;SDS011;25203;50.754;6.978;2022-08-19T11:50:32;11.73;;;10.63;;
39524;SDS011;25203;50.754;6.978;2022-08-19T11:52:32;10.80;;;9.48;;
39524;SDS011;25203;50.754;6.978;2022-08-19T11:54:33;10.60;;;9.60;;
39524;SDS011;25203;50.754;6.978;2022-08-19T11:56:34;7.72;;;6.93;;
39524;SDS011;25203;50.754;6.978;2022-08-19T11:58:35;9.82;;;8.43;;
39524;SDS011;25203;50.754;6.978;2022-08-19T12:00:35;11.27;;;8.20;;
39524;SDS011;25203;50.754;6.978;2022-08-19T12:02:37;7.03;;;6.32;;
39524;SDS011;25203;50.754;6.978;2022-08-19T12:04:39;11.98;;;10.85;;
39524;SDS011;25203;50.754;6.978;2022-08-19T12:06:39;13.57;;;10.85;;
39524;SDS011;25203;50.754;6.978;2022-08-19T12:08:41;12.82;;;11.45;;